Time;durP1;ratioP1;P1;durP2;ratioP2;P2;SDS_P1;SDS_P2;PMS_P1;PMS_P2;Temp;Humidity;BMP_temperature;BMP_pressure;BME280_temperature;BME280_humidity;BME280_pressure;Samples;Min_cycle;Max_cycle;Signal;HPM_P1;HPM_P2
2022/08/12 00:43:03;;;;;;;8.48;4.03;;;;;;;;;;4994407;28;20054;-72
2022/08/12 00:46:29;;;;;;;9.23;4.50;;;;;;;;;;5010994;28;20065;-69
2022/08/12 00:48:24;;;;;;;8.85;4.32;;;;;;;;;;5010561;28;20065;-68
2022/08/12 00:50:57;;;;;;;9.30;4.35;;;;;;;;;;5010970;28;20050;-68
2022/08/12 00:53:29;;;;;;;8.55;4.25;;;;;;;;;;5014423;28;20683;-68
2022/08/12 00:56:00;;;;;;;9.02;4.70;;;;;;;;;;5010480;28;20042;-68
2022/08/12 00:58:32;;;;;;;8.00;4.97;;;;;;;;;;5010436;28;20060;-69
2022/08/12 01:01:07;;;;;;;8.45;4.32;;;;;;;;;;5010618;28;20050;-68
2022/08/12 01:12:12;;;;;;;8.82;4.32;;;;;;;;;;4923479;28;20054;-72
2022/08/12 01:14:43;;;;;;;9.55;4.45;;;;;;;;;;4986044;28;20065;-70
2022/08/12 01:17:14;;;;;;;12.13;5.00;;;;;;;;;;5010574;28;20046;-70
2022/08/12 01:19:46;;;;;;;12.90;4.80;;;;;;;;;;5010361;28;20581;-71
2022/08/12 01:22:33;;;;;;;9.20;5.10;;;;;;;;;;5010402;28;20054;-70
2022/08/12 01:25:11;;;;;;;9.48;4.65;;;;;;;;;;5012109;28;20057;-70
2022/08/12 01:27:43;;;;;;;10.32;4.63;;;;;;;;;;4993477;28;20050;-70
2022/08/12 01:30:15;;;;;;;11.20;4.47;;;;;;;;;;5010180;28;20050;-71
2022/08/12 01:32:48;;;;;;;12.25;5.45;;;;;;;;;;5015687;28;20633;-69
2022/08/12 01:35:20;;;;;;;8.82;4.65;;;;;;;;;;5049931;28;20045;-71
2022/08/12 01:38:03;;;;;;;11.07;5.57;;;;;;;;;;5033570;28;20068;-69
2022/08/12 01:40:36;;;;;;;10.32;5.18;;;;;;;;;;5049648;28;20496;-69
2022/08/12 01:43:20;;;;;;;10.60;4.95;;;;;;;;;;5054719;28;20052;-69
2022/08/12 01:46:14;;;;;;;9.45;5.13;;;;;;;;;;5040646;28;20051;-69
2022/08/12 01:49:03;;;;;;;10.48;4.88;;;;;;;;;;5089790;28;20156;-69
2022/08/12 01:51:41;;;;;;;10.30;5.00;;;;;;;;;;5089705;28;20060;-69
2022/08/12 01:54:38;;;;;;;10.32;4.80;;;;;;;;;;5088790;28;20088;-69
2022/08/12 01:57:28;;;;;;;9.38;4.35;;;;;;;;;;5032638;28;20045;-70
2022/08/12 02:00:19;;;;;;;9.18;5.03;;;;;;;;;;4989615;28;20066;-69
2022/08/12 02:03:29;;;;;;;9.82;4.90;;;;;;;;;;4990129;28;20054;-69
2022/08/12 02:12:05;;;;;;;7.80;3.50;;;;;;;;;;4989540;28;20539;-70
2022/08/12 02:14:42;;;;;;;10.57;5.07;;;;;;;;;;4954952;28;20158;-69
2022/08/12 02:17:34;;;;;;;11.65;4.95;;;;;;;;;;4970436;28;20076;-69
2022/08/12 02:20:43;;;;;;;8.93;3.83;;;;;;;;;;4957201;28;20062;-71
2022/08/12 02:23:26;;;;;;;9.70;3.92;;;;;;;;;;4970028;28;20051;-69
2022/08/12 02:26:04;;;;;;;8.25;4.35;;;;;;;;;;4903619;29;20036;-69
2022/08/12 02:28:37;;;;;;;11.55;3.97;;;;;;;;;;4950804;29;20055;-69
2022/08/12 02:31:10;;;;;;;6.97;3.60;;;;;;;;;;4950540;29;20555;-69
2022/08/12 02:33:42;;;;;;;8.68;4.40;;;;;;;;;;4951164;28;20085;-69
2022/08/12 02:36:15;;;;;;;6.10;3.47;;;;;;;;;;4953732;28;20050;-69
2022/08/12 02:38:51;;;;;;;9.02;3.97;;;;;;;;;;4982363;28;20055;-70
2022/08/12 02:41:26;;;;;;;7.85;3.47;;;;;;;;;;4992818;28;20058;-70
2022/08/12 02:44:06;;;;;;;7.63;3.28;;;;;;;;;;5008783;28;20054;-71
2022/08/12 02:46:38;;;;;;;5.72;3.03;;;;;;;;;;5008801;28;20065;-69
2022/08/12 02:49:13;;;;;;;7.20;2.95;;;;;;;;;;4993079;28;20387;-68
2022/08/12 02:51:44;;;;;;;6.30;3.28;;;;;;;;;;5020761;28;20072;-69
2022/08/12 02:54:15;;;;;;;7.70;3.28;;;;;;;;;;5048488;28;20049;-69
2022/08/12 02:56:45;;;;;;;8.90;3.67;;;;;;;;;;5080200;28;20063;-69
2022/08/12 02:59:23;;;;;;;6.45;3.33;;;;;;;;;;5088299;28;20044;-69
2022/08/12 03:01:55;;;;;;;8.52;4.15;;;;;;;;;;5088495;28;20064;-69
2022/08/12 03:04:25;;;;;;;7.68;3.75;;;;;;;;;;5084753;28;20048;-69
2022/08/12 03:07:19;;;;;;;9.38;3.50;;;;;;;;;;5088361;28;20060;-68
2022/08/12 03:10:09;;;;;;;12.98;3.97;;;;;;;;;;5088277;28;20051;-68
2022/08/12 03:12:47;;;;;;;6.15;3.47;;;;;;;;;;5088278;28;20044;-69
2022/08/12 03:15:23;;;;;;;7.32;3.80;;;;;;;;;;5087068;28;20052;-70
2022/08/12 03:18:02;;;;;;;6.75;3.00;;;;;;;;;;5068123;28;20049;-69
2022/08/12 03:20:53;;;;;;;8.48;3.45;;;;;;;;;;5068253;28;20052;-68
2022/08/12 03:23:25;;;;;;;7.82;4.00;;;;;;;;;;5067759;28;20056;-69
2022/08/12 03:26:00;;;;;;;6.93;3.50;;;;;;;;;;5068237;28;20051;-68
2022/08/12 03:28:56;;;;;;;7.63;3.67;;;;;;;;;;5068179;28;20060;-69
2022/08/12 03:31:31;;;;;;;6.63;3.83;;;;;;;;;;5067892;28;20560;-68
2022/08/12 03:34:11;;;;;;;6.80;4.07;;;;;;;;;;5035391;28;20067;-69
2022/08/12 03:36:42;;;;;;;8.77;3.33;;;;;;;;;;5083801;28;20534;-69
2022/08/12 03:42:00;;;;;;;10.00;3.50;;;;;;;;;;5076131;28;20071;-68
2022/08/12 04:01:58;;;;;;;8.23;3.03;;;;;;;;;;5047561;28;20045;-68
2022/08/12 04:04:34;;;;;;;6.93;3.15;;;;;;;;;;5047535;28;20064;-68
2022/08/12 04:07:07;;;;;;;6.15;2.50;;;;;;;;;;5047651;28;20080;-71
2022/08/12 04:09:40;;;;;;;7.18;3.00;;;;;;;;;;5047303;28;20045;-69
2022/08/12 04:15:01;;;;;;;6.15;2.65;;;;;;;;;;5014299;28;20084;-69
2022/08/12 04:17:33;;;;;;;5.30;2.40;;;;;;;;;;5016432;28;20175;-68
2022/08/12 04:20:10;;;;;;;5.82;2.35;;;;;;;;;;5051304;28;20484;-70
2022/08/12 04:22:41;;;;;;;4.45;2.17;;;;;;;;;;4995337;28;20619;-70
2022/08/12 04:25:12;;;;;;;3.28;1.77;;;;;;;;;;5011603;28;20157;-69
2022/08/12 04:27:45;;;;;;;5.95;1.98;;;;;;;;;;5023854;28;20406;-69
2022/08/12 04:30:16;;;;;;;5.80;2.30;;;;;;;;;;5010912;28;20054;-69
2022/08/12 04:33:01;;;;;;;6.85;2.47;;;;;;;;;;5011401;28;20057;-68
2022/08/12 04:35:32;;;;;;;5.03;1.40;;;;;;;;;;5011147;28;20398;-71
2022/08/12 04:38:04;;;;;;;3.65;1.55;;;;;;;;;;4995609;28;20046;-69
2022/08/12 04:40:37;;;;;;;5.05;2.10;;;;;;;;;;4994918;28;20050;-69
2022/08/12 04:43:08;;;;;;;4.43;1.85;;;;;;;;;;5011077;28;20542;-69
2022/08/12 04:46:01;;;;;;;2.95;1.10;;;;;;;;;;5011268;28;20476;-69
2022/08/12 04:48:32;;;;;;;4.22;1.65;;;;;;;;;;5051116;28;20053;-69
2022/08/12 04:51:04;;;;;;;3.17;1.60;;;;;;;;;;5013776;28;20057;-69
2022/08/12 04:53:34;;;;;;;2.55;1.50;;;;;;;;;;5030666;28;20061;-69
2022/08/12 04:56:04;;;;;;;4.47;1.75;;;;;;;;;;4971680;28;20055;-69
2022/08/12 04:58:35;;;;;;;5.13;1.90;;;;;;;;;;4971965;28;20063;-69
2022/08/12 05:01:06;;;;;;;4.05;1.73;;;;;;;;;;4988775;28;20063;-68
2022/08/12 05:03:37;;;;;;;4.18;2.03;;;;;;;;;;4991315;28;20506;-69
2022/08/12 05:06:15;;;;;;;3.90;1.88;;;;;;;;;;4952114;28;20050;-69
2022/08/12 05:08:59;;;;;;;3.05;2.50;;;;;;;;;;4970134;28;20065;-69
2022/08/12 05:11:39;;;;;;;4.97;1.63;;;;;;;;;;4938076;28;20047;-69
2022/08/12 05:14:22;;;;;;;2.55;1.30;;;;;;;;;;4951912;28;20051;-68
2022/08/12 05:16:53;;;;;;;3.05;1.63;;;;;;;;;;4952147;28;20066;-68
2022/08/12 05:19:23;;;;;;;3.00;1.52;;;;;;;;;;4939116;28;20051;-69
2022/08/12 05:21:53;;;;;;;3.35;1.75;;;;;;;;;;4971223;28;20507;-70
2022/08/12 05:24:24;;;;;;;6.75;1.50;;;;;;;;;;4932349;29;20058;-69
2022/08/12 05:26:55;;;;;;;8.38;1.30;;;;;;;;;;4932905;29;20059;-68
2022/08/12 05:29:28;;;;;;;3.75;1.50;;;;;;;;;;4916988;29;20076;-69
2022/08/12 05:32:19;;;;;;;2.80;1.33;;;;;;;;;;4913921;29;20064;-70
2022/08/12 05:34:50;;;;;;;2.45;1.63;;;;;;;;;;4947169;28;20096;-69
2022/08/12 05:37:23;;;;;;;2.08;1.25;;;;;;;;;;4932770;29;20098;-69
2022/08/12 05:39:53;;;;;;;3.50;1.80;;;;;;;;;;4951446;28;20067;-69
2022/08/12 05:42:24;;;;;;;3.20;1.27;;;;;;;;;;4951785;28;20062;-68
2022/08/12 05:45:10;;;;;;;2.72;1.15;;;;;;;;;;5009894;28;20061;-69
2022/08/12 05:47:40;;;;;;;1.90;1.08;;;;;;;;;;4994184;28;20054;-69
2022/08/12 05:50:22;;;;;;;2.05;1.10;;;;;;;;;;4970788;28;20055;-69
2022/08/12 05:52:52;;;;;;;2.60;1.00;;;;;;;;;;4970777;28;20066;-70
2022/08/12 05:55:23;;;;;;;1.80;1.02;;;;;;;;;;4978833;28;20055;-68
2022/08/12 05:58:01;;;;;;;2.35;1.10;;;;;;;;;;4990016;28;20060;-69
2022/08/12 06:00:33;;;;;;;1.95;0.93;;;;;;;;;;4989991;28;20062;-69
2022/08/12 06:03:05;;;;;;;3.55;3.05;;;;;;;;;;4957643;28;20065;-69
2022/08/12 06:05:37;;;;;;;3.05;1.15;;;;;;;;;;4953874;28;20062;-70
2022/08/12 06:08:24;;;;;;;1.55;1.05;;;;;;;;;;4989789;28;20065;-69
2022/08/12 06:10:55;;;;;;;3.75;1.05;;;;;;;;;;4989881;28;20507;-69
2022/08/12 06:13:26;;;;;;;2.63;1.20;;;;;;;;;;4976556;28;20057;-69
2022/08/12 06:16:19;;;;;;;1.80;1.05;;;;;;;;;;5009379;28;20054;-69
2022/08/12 06:18:50;;;;;;;;;;;;;;;;;;5009811;28;20176;-69
2022/08/12 06:21:22;;;;;;;3.00;0.90;;;;;;;;;;5040253;28;20400;-69
2022/08/12 06:23:53;;;;;;;3.67;1.35;;;;;;;;;;5068950;28;20060;-69
2022/08/12 06:26:23;;;;;;;1.95;1.60;;;;;;;;;;5048608;28;20084;-69
2022/08/12 06:28:55;;;;;;;2.88;1.08;;;;;;;;;;5008818;28;20053;-69
2022/08/12 06:31:26;;;;;;;3.88;1.30;;;;;;;;;;5009097;28;20050;-70
2022/08/12 06:33:56;;;;;;;1.65;0.90;;;;;;;;;;4939664;28;20415;-70
2022/08/12 06:36:47;;;;;;;2.15;0.95;;;;;;;;;;4950604;29;20594;-69
2022/08/12 06:39:19;;;;;;;2.30;1.10;;;;;;;;;;4930842;29;20055;-69
2022/08/12 06:44:57;;;;;;;2.40;1.55;;;;;;;;;;4969749;28;20055;-70
2022/08/12 06:47:28;;;;;;;1.55;1.00;;;;;;;;;;4954079;28;20051;-69
2022/08/12 06:49:58;;;;;;;1.95;1.00;;;;;;;;;;4953973;28;20050;-69
2022/08/12 06:52:30;;;;;;;1.52;1.08;;;;;;;;;;4950588;29;20062;-69
2022/08/12 06:55:00;;;;;;;1.33;1.00;;;;;;;;;;4935079;29;20542;-69
2022/08/12 06:57:31;;;;;;;2.72;0.57;;;;;;;;;;4915068;29;20411;-70
2022/08/12 07:00:26;;;;;;;1.58;1.02;;;;;;;;;;4931106;29;20051;-70
2022/08/12 07:03:01;;;;;;;;;;;;;;;;;;4931654;29;20062;-70
2022/08/12 07:05:50;;;;;;;1.83;0.98;;;;;;;;;;4942139;28;19922;-69
2022/08/12 07:08:22;;;;;;;1.67;0.60;;;;;;;;;;4969398;28;20412;-69
2022/08/12 07:10:57;;;;;;;1.73;1.30;;;;;;;;;;4953626;28;20054;-70
2022/08/12 07:13:42;;;;;;;1.75;0.82;;;;;;;;;;4937119;28;20089;-69
2022/08/12 07:19:21;;;;;;;2.13;0.95;;;;;;;;;;4940469;28;20553;-69
2022/08/12 07:21:51;;;;;;;1.88;1.08;;;;;;;;;;4989336;28;20495;-69
2022/08/12 07:24:30;;;;;;;2.50;0.98;;;;;;;;;;4988717;28;20058;-69
2022/08/12 07:27:01;;;;;;;4.30;1.63;;;;;;;;;;4930600;29;20044;-69
2022/08/12 07:29:31;;;;;;;1.75;0.90;;;;;;;;;;4931030;29;20063;-70
2022/08/12 07:32:23;;;;;;;1.38;0.77;;;;;;;;;;4930928;29;20064;-70
2022/08/12 07:34:57;;;;;;;1.70;0.93;;;;;;;;;;4957769;28;20055;-70
2022/08/12 07:37:27;;;;;;;2.40;0.95;;;;;;;;;;4968949;28;20059;-70
2022/08/12 07:39:58;;;;;;;3.40;0.98;;;;;;;;;;4969254;28;20529;-70
2022/08/12 07:42:29;;;;;;;1.65;1.23;;;;;;;;;;4971184;28;20061;-70
2022/08/12 07:44:59;;;;;;;1.80;0.93;;;;;;;;;;4974344;28;20185;-69
2022/08/12 07:47:30;;;;;;;3.88;0.60;;;;;;;;;;4991764;28;20391;-69
2022/08/12 07:50:03;;;;;;;1.92;0.93;;;;;;;;;;5008275;28;20046;-69
2022/08/12 07:52:41;;;;;;;2.22;0.95;;;;;;;;;;5011530;28;20060;-69
2022/08/12 07:55:12;;;;;;;1.40;0.70;;;;;;;;;;5012084;28;20046;-68
2022/08/12 07:57:51;;;;;;;1.63;0.90;;;;;;;;;;5027689;28;20057;-70
2022/08/12 08:00:22;;;;;;;2.85;1.13;;;;;;;;;;5011910;28;20065;-69
2022/08/12 08:02:53;;;;;;;2.67;0.85;;;;;;;;;;4995096;28;20053;-68
2022/08/12 08:05:25;;;;;;;1.48;0.93;;;;;;;;;;5040320;28;20524;-69
2022/08/12 08:08:00;;;;;;;2.20;0.80;;;;;;;;;;5051440;28;20068;-69
2022/08/12 08:10:32;;;;;;;1.90;1.00;;;;;;;;;;5051418;28;20053;-69
2022/08/12 08:13:03;;;;;;;2.75;0.70;;;;;;;;;;5064737;28;20059;-69
2022/08/12 08:15:34;;;;;;;1.83;1.08;;;;;;;;;;5055092;28;20548;-69
2022/08/12 08:18:26;;;;;;;1.30;0.75;;;;;;;;;;5058293;28;20052;-69
2022/08/12 08:20:56;;;;;;;1.88;1.30;;;;;;;;;;5054815;28;20056;-69
2022/08/12 08:24:13;;;;;;;2.13;1.30;;;;;;;;;;5034713;28;20045;-68
2022/08/12 08:26:25;;;;;;;2.80;1.13;;;;;;;;;;5050982;28;20057;-69
2022/08/12 08:29:01;;;;;;;2.78;1.27;;;;;;;;;;5034249;28;20053;-69
2022/08/12 08:31:33;;;;;;;2.17;1.23;;;;;;;;;;5050946;28;21039;-69
2022/08/12 08:34:03;;;;;;;0.90;0.55;;;;;;;;;;5051244;28;20392;-69
2022/08/12 08:36:54;;;;;;;1.70;0.90;;;;;;;;;;5071124;28;20060;-69
2022/08/12 08:39:26;;;;;;;4.75;1.25;;;;;;;;;;5071006;28;20471;-69
2022/08/12 08:44:48;;;;;;;1.35;0.65;;;;;;;;;;5111224;28;20461;-70
2022/08/12 08:47:26;;;;;;;1.73;1.02;;;;;;;;;;5080725;28;20047;-70
2022/08/12 08:49:59;;;;;;;1.92;0.93;;;;;;;;;;5111353;28;20055;-70
2022/08/12 08:52:30;;;;;;;2.95;1.02;;;;;;;;;;5060966;28;20059;-70
2022/08/12 08:55:14;;;;;;;1.13;0.60;;;;;;;;;;5111076;28;20530;-70
2022/08/12 08:57:53;;;;;;;2.67;2.17;;;;;;;;;;5111335;28;20048;-70
2022/08/12 09:00:24;;;;;;;1.70;0.70;;;;;;;;;;5116313;27;20406;-69
2022/08/12 09:02:54;;;;;;;2.13;0.60;;;;;;;;;;5133557;27;20398;-69
2022/08/12 09:05:28;;;;;;;1.23;0.75;;;;;;;;;;5090345;28;20526;-69
2022/08/12 09:08:18;;;;;;;2.83;1.00;;;;;;;;;;5090743;28;20067;-69
2022/08/12 09:14:18;;;;;;;2.08;0.98;;;;;;;;;;5050017;28;20531;-70
2022/08/12 09:16:57;;;;;;;;;;;;;;;;;;5050650;28;20053;-69
2022/08/12 09:19:28;;;;;;;2.80;0.70;;;;;;;;;;5010333;28;20293;-68
2022/08/12 09:22:01;;;;;;;1.65;0.70;;;;;;;;;;4961687;28;20058;-69
2022/08/12 09:24:32;;;;;;;1.92;0.90;;;;;;;;;;5010273;28;20057;-69
2022/08/12 09:27:05;;;;;;;1.55;1.00;;;;;;;;;;5010165;28;20054;-69
2022/08/12 09:29:40;;;;;;;2.80;1.00;;;;;;;;;;5010210;28;20058;-69
2022/08/12 09:32:30;;;;;;;1.52;0.90;;;;;;;;;;4970849;28;20054;-69
2022/08/12 09:35:26;;;;;;;1.92;1.42;;;;;;;;;;4954785;28;20613;-69
2022/08/12 09:37:57;;;;;;;2.05;0.93;;;;;;;;;;4971115;28;20569;-69
2022/08/12 09:40:30;;;;;;;1.33;0.82;;;;;;;;;;4940314;28;20047;-69
2022/08/12 09:46:23;;;;;;;1.60;0.82;;;;;;;;;;5010050;28;20053;-68
2022/08/12 09:48:54;;;;;;;2.67;1.00;;;;;;;;;;5009960;28;20057;-69
2022/08/12 09:51:26;;;;;;;1.40;0.75;;;;;;;;;;5016134;28;20052;-70
2022/08/12 09:54:10;;;;;;;3.10;1.20;;;;;;;;;;5000079;28;20076;-69
2022/08/12 09:57:06;;;;;;;3.17;1.00;;;;;;;;;;5067920;28;20511;-68
2022/08/12 09:59:57;;;;;;;1.42;1.33;;;;;;;;;;5089640;28;20048;-69
2022/08/12 10:03:00;;;;;;;4.28;0.63;;;;;;;;;;5062000;28;20052;-68
2022/08/12 10:05:35;;;;;;;1.23;0.80;;;;;;;;;;5089327;28;20048;-69
2022/08/12 10:08:29;;;;;;;4.70;0.80;;;;;;;;;;5049211;28;20049;-69
2022/08/12 10:13:53;;;;;;;1.67;1.05;;;;;;;;;;5088682;28;20182;-69
2022/08/12 10:16:33;;;;;;;1.38;1.10;;;;;;;;;;5038727;28;20052;-69
2022/08/12 10:19:07;;;;;;;1.40;0.70;;;;;;;;;;5089251;28;20040;-70
2022/08/12 10:21:46;;;;;;;3.17;1.50;;;;;;;;;;5073885;28;20044;-69
2022/08/12 10:24:24;;;;;;;4.47;1.80;;;;;;;;;;5048317;28;20551;-69
2022/08/12 10:29:46;;;;;;;5.22;2.13;;;;;;;;;;5028453;28;20060;-69
2022/08/12 10:32:37;;;;;;;3.03;1.25;;;;;;;;;;5027022;28;20163;-70
2022/08/12 10:35:15;;;;;;;1.67;1.00;;;;;;;;;;5028409;28;20053;-70
2022/08/12 10:37:45;;;;;;;2.42;1.17;;;;;;;;;;4953781;28;20050;-70
2022/08/12 10:43:39;;;;;;;8.10;1.60;;;;;;;;;;4970045;28;20059;-70
2022/08/12 10:43:42;;;;;;;2.85;1.50;;;;;;;;;;4970053;28;20051;-70
2022/08/12 10:46:24;;;;;;;3.50;1.75;;;;;;;;;;4969848;28;20055;-71
2022/08/12 10:49:00;;;;;;;5.75;1.60;;;;;;;;;;4969630;28;20046;-70
2022/08/12 10:51:51;;;;;;;4.85;2.35;;;;;;;;;;4969742;28;20051;-70
2022/08/12 10:54:33;;;;;;;8.93;3.67;;;;;;;;;;4969700;28;20077;-71
2022/08/12 10:57:04;;;;;;;10.48;3.90;;;;;;;;;;4937752;28;20059;-71
2022/08/12 10:59:35;;;;;;;11.25;4.55;;;;;;;;;;4946179;29;20542;-70
2022/08/12 11:02:27;;;;;;;11.25;5.05;;;;;;;;;;4943559;29;20102;-70
2022/08/12 11:05:18;;;;;;;10.23;4.60;;;;;;;;;;4956505;28;20050;-70
2022/08/12 11:08:10;;;;;;;9.48;4.35;;;;;;;;;;4985125;28;20058;-70
2022/08/12 11:11:01;;;;;;;8.32;4.18;;;;;;;;;;4988839;28;20054;-70
2022/08/12 11:13:47;;;;;;;6.80;3.20;;;;;;;;;;4991617;28;20046;-70
2022/08/12 11:16:17;;;;;;;9.70;3.95;;;;;;;;;;4956701;28;20057;-71
2022/08/12 11:18:51;;;;;;;9.00;3.88;;;;;;;;;;5026336;28;20049;-70
2022/08/12 11:21:24;;;;;;;7.03;3.38;;;;;;;;;;5047898;28;20053;-70
2022/08/12 11:24:15;;;;;;;7.82;3.20;;;;;;;;;;5047845;28;20529;-70
2022/08/12 11:27:05;;;;;;;10.52;4.72;;;;;;;;;;5047767;28;20048;-69
2022/08/12 11:29:39;;;;;;;10.27;5.30;;;;;;;;;;5032126;28;20063;-69
2022/08/12 11:32:30;;;;;;;8.35;4.63;;;;;;;;;;4988571;28;20050;-69
2022/08/12 11:35:08;;;;;;;7.85;3.97;;;;;;;;;;4988623;28;20066;-70
2022/08/12 11:37:40;;;;;;;10.88;3.80;;;;;;;;;;4979756;28;20065;-69
2022/08/12 11:40:28;;;;;;;6.93;3.42;;;;;;;;;;5008157;28;20054;-69
2022/08/12 11:42:59;;;;;;;5.65;2.72;;;;;;;;;;5007680;28;20517;-69
2022/08/12 11:45:48;;;;;;;8.25;4.15;;;;;;;;;;4994464;28;20056;-69
2022/08/12 11:48:24;;;;;;;8.82;3.20;;;;;;;;;;4992990;28;20046;-69
2022/08/12 11:50:59;;;;;;;7.75;2.92;;;;;;;;;;4973343;28;20425;-69
2022/08/12 11:53:29;;;;;;;8.23;3.30;;;;;;;;;;5047893;28;20049;-69
2022/08/12 11:56:20;;;;;;;9.73;5.47;;;;;;;;;;5047615;28;20065;-69
2022/08/12 11:59:06;;;;;;;7.55;3.92;;;;;;;;;;5048073;28;20056;-71
2022/08/12 12:01:56;;;;;;;8.52;4.10;;;;;;;;;;5047648;28;20469;-70
2022/08/12 12:04:33;;;;;;;10.90;5.40;;;;;;;;;;5047551;28;20053;-70
2022/08/12 12:07:04;;;;;;;9.30;5.20;;;;;;;;;;5047518;28;20110;-70
2022/08/12 12:09:39;;;;;;;14.02;6.70;;;;;;;;;;5066145;28;20063;-70
2022/08/12 12:12:22;;;;;;;13.30;6.82;;;;;;;;;;5108031;28;20047;-70
2022/08/12 12:15:02;;;;;;;12.02;5.90;;;;;;;;;;5096121;28;20055;-71
2022/08/12 12:17:37;;;;;;;10.75;5.50;;;;;;;;;;5051409;28;20056;-71
2022/08/12 12:20:10;;;;;;;13.80;7.68;;;;;;;;;;5067381;28;20063;-70
2022/08/12 12:22:41;;;;;;;9.93;4.38;;;;;;;;;;5067830;28;20052;-71
2022/08/12 12:25:13;;;;;;;9.30;4.30;;;;;;;;;;5018198;28;20052;-72
2022/08/12 12:27:51;;;;;;;7.85;4.30;;;;;;;;;;5047056;28;20048;-70
2022/08/12 12:30:35;;;;;;;10.38;4.85;;;;;;;;;;5013966;28;20076;-73
2022/08/12 12:33:06;;;;;;;10.57;4.25;;;;;;;;;;5027223;28;20437;-70
2022/08/12 12:35:38;;;;;;;3.78;2.03;;;;;;;;;;5010675;28;20065;-70
2022/08/12 12:38:29;;;;;;;3.42;1.70;;;;;;;;;;5028964;28;20497;-71
2022/08/12 12:41:02;;;;;;;2.72;1.23;;;;;;;;;;4982113;28;20056;-71
2022/08/12 12:43:45;;;;;;;2.10;1.00;;;;;;;;;;5011297;28;20426;-70
2022/08/12 12:46:32;;;;;;;2.50;1.30;;;;;;;;;;4964888;28;20541;-71
2022/08/12 12:49:03;;;;;;;1.90;1.17;;;;;;;;;;5010990;28;20050;-70
2022/08/12 12:51:39;;;;;;;3.15;1.17;;;;;;;;;;4962497;28;20050;-71
2022/08/12 12:54:29;;;;;;;1.92;1.00;;;;;;;;;;4975358;28;20050;-71
2022/08/12 12:57:00;;;;;;;1.95;1.00;;;;;;;;;;4971409;28;20051;-71
2022/08/12 12:59:32;;;;;;;;;;;;;;;;;;4955966;28;20061;-73
2022/08/12 13:02:24;;;;;;;2.83;1.00;;;;;;;;;;4971841;28;19929;-71
2022/08/12 13:04:59;;;;;;;3.03;1.10;;;;;;;;;;4971237;28;20054;-70
2022/08/12 13:07:30;;;;;;;3.67;1.25;;;;;;;;;;4971242;28;20050;-68
2022/08/12 13:10:22;;;;;;;2.30;1.10;;;;;;;;;;4984631;28;20494;-69
2022/08/12 13:13:01;;;;;;;2.83;1.50;;;;;;;;;;5010398;28;20049;-69
2022/08/12 13:15:52;;;;;;;15.90;7.43;;;;;;;;;;5010661;28;20073;-68
2022/08/12 13:18:37;;;;;;;2.13;1.20;;;;;;;;;;4977586;28;20060;-71
2022/08/12 13:21:08;;;;;;;3.10;1.55;;;;;;;;;;4977499;28;20053;-70
2022/08/12 13:24:01;;;;;;;2.70;1.10;;;;;;;;;;5010033;28;20778;-68
2022/08/12 13:26:39;;;;;;;3.67;1.13;;;;;;;;;;5010383;28;20054;-69
2022/08/12 13:29:09;;;;;;;3.15;1.85;;;;;;;;;;4991823;28;20066;-69
2022/08/12 13:31:41;;;;;;;2.25;1.00;;;;;;;;;;4990640;28;20046;-69
2022/08/12 13:34:35;;;;;;;2.20;1.00;;;;;;;;;;4990462;28;20062;-69
2022/08/12 13:37:06;;;;;;;2.97;1.85;;;;;;;;;;4990632;28;20201;-70
2022/08/12 13:39:38;;;;;;;3.25;1.40;;;;;;;;;;4990753;28;20050;-69
2022/08/12 13:42:09;;;;;;;4.90;2.10;;;;;;;;;;4995599;28;20502;-69
2022/08/12 13:44:43;;;;;;;1.70;1.13;;;;;;;;;;5009678;28;20073;-69
2022/08/12 13:47:14;;;;;;;10.70;4.35;;;;;;;;;;5009881;28;20458;-68
2022/08/12 13:49:50;;;;;;;2.00;1.00;;;;;;;;;;5009920;28;20058;-69
2022/08/12 13:52:24;;;;;;;2.03;0.85;;;;;;;;;;5009687;28;20062;-68
2022/08/12 13:54:54;;;;;;;3.13;1.10;;;;;;;;;;5009493;28;20053;-68
2022/08/12 13:57:42;;;;;;;1.00;0.90;;;;;;;;;;5009801;28;20054;-68
2022/08/12 14:00:17;;;;;;;2.60;0.93;;;;;;;;;;5013868;28;20057;-68
2022/08/12 14:02:48;;;;;;;2.25;0.90;;;;;;;;;;5029544;28;20496;-69
2022/08/12 14:05:21;;;;;;;2.00;1.02;;;;;;;;;;4980620;28;20056;-73
2022/08/12 14:08:08;;;;;;;4.53;3.03;;;;;;;;;;4996235;28;20480;-69
2022/08/12 14:10:54;;;;;;;2.95;1.40;;;;;;;;;;5028974;28;20049;-68
2022/08/12 14:13:25;;;;;;;;;;;;;;;;;;5029317;28;20053;-68
2022/08/12 14:16:17;;;;;;;2.28;1.40;;;;;;;;;;5029090;28;19935;-70
2022/08/12 14:19:07;;;;;;;2.00;1.20;;;;;;;;;;5043353;28;20048;-69
2022/08/12 14:21:52;;;;;;;1.85;1.00;;;;;;;;;;5055571;28;20051;-69
2022/08/12 14:24:35;;;;;;;1.15;0.73;;;;;;;;;;5089058;28;20044;-68
2022/08/12 14:27:11;;;;;;;0.93;0.82;;;;;;;;;;5039173;28;20048;-67
2022/08/12 14:29:41;;;;;;;;;;;;;;;;;;5089357;28;20056;-69
2022/08/12 14:32:33;;;;;;;1.63;0.80;;;;;;;;;;5075096;28;19920;-67
2022/08/12 14:35:05;;;;;;;0.90;0.50;;;;;;;;;;5072693;28;21085;-68
2022/08/12 14:37:38;;;;;;;1.63;0.65;;;;;;;;;;5068133;28;20052;-68
2022/08/12 14:40:29;;;;;;;1.83;1.00;;;;;;;;;;5068763;28;20044;-68
2022/08/12 14:43:01;;;;;;;2.10;1.25;;;;;;;;;;5052106;28;20056;-68
2022/08/12 14:45:35;;;;;;;1.50;1.13;;;;;;;;;;5018955;28;20056;-68
2022/08/12 14:48:19;;;;;;;1.30;0.63;;;;;;;;;;5014171;28;20055;-71
2022/08/12 14:50:52;;;;;;;0.50;0.20;;;;;;;;;;5088728;28;20436;-67
2022/08/12 14:53:45;;;;;;;0.90;0.70;;;;;;;;;;5088423;28;20051;-67
2022/08/12 14:56:36;;;;;;;1.25;0.63;;;;;;;;;;5088501;28;20051;-67
2022/08/12 15:02:28;;;;;;;1.23;0.80;;;;;;;;;;5034560;28;20049;-68
2022/08/12 15:05:01;;;;;;;1.27;0.65;;;;;;;;;;5068202;28;20056;-67
2022/08/12 15:07:32;;;;;;;1.23;0.80;;;;;;;;;;5028198;28;20050;-68
2022/08/12 15:10:19;;;;;;;1.30;0.80;;;;;;;;;;5008233;28;20069;-69
2022/08/12 15:13:04;;;;;;;1.80;0.63;;;;;;;;;;5008120;28;20050;-67
2022/08/12 15:15:42;;;;;;;1.00;0.55;;;;;;;;;;4975897;28;20065;-66
2022/08/12 15:18:16;;;;;;;3.10;0.80;;;;;;;;;;5008380;28;20053;-67
2022/08/12 15:20:55;;;;;;;1.60;0.77;;;;;;;;;;5008341;28;20502;-67
2022/08/12 15:23:33;;;;;;;1.52;0.60;;;;;;;;;;5008262;28;20065;-66
2022/08/12 15:26:24;;;;;;;2.15;0.93;;;;;;;;;;5008511;28;20061;-66
2022/08/12 15:29:05;;;;;;;1.30;0.95;;;;;;;;;;4993741;28;20053;-67
2022/08/12 15:31:38;;;;;;;1.52;1.42;;;;;;;;;;4992857;28;20065;-68
2022/08/12 15:34:32;;;;;;;2.13;0.60;;;;;;;;;;5008404;28;20407;-67
2022/08/12 15:37:02;;;;;;;1.20;0.80;;;;;;;;;;4991385;28;20049;-68
2022/08/12 15:39:37;;;;;;;3.20;0.20;;;;;;;;;;5014526;28;20665;-67
2022/08/12 15:42:23;;;;;;;1.35;0.50;;;;;;;;;;5027933;28;20061;-68
2022/08/12 15:44:55;;;;;;;2.30;0.60;;;;;;;;;;5011825;28;20052;-68
2022/08/12 15:47:27;;;;;;;0.20;0.20;;;;;;;;;;5043777;28;20454;-67
2022/08/12 15:50:21;;;;;;;0.60;0.60;;;;;;;;;;5094718;28;20044;-67
2022/08/12 15:52:57;;;;;;;0.60;0.60;;;;;;;;;;5108251;28;20055;-68
2022/08/12 15:55:43;;;;;;;0.77;0.60;;;;;;;;;;5108213;28;20051;-67
2022/08/12 15:58:15;;;;;;;0.55;0.55;;;;;;;;;;5109270;28;20071;-69
2022/08/12 16:00:45;;;;;;;0.35;0.17;;;;;;;;;;5109381;28;20388;-69
2022/08/12 16:03:32;;;;;;;0.68;0.45;;;;;;;;;;5110753;28;20048;-69
2022/08/12 16:06:23;;;;;;;2.50;2.40;;;;;;;;;;5110778;28;20040;-66
2022/08/12 16:09:17;;;;;;;0.80;0.47;;;;;;;;;;5109463;28;20435;-67
2022/08/12 16:11:50;;;;;;;0.50;0.30;;;;;;;;;;5067273;28;20416;-67
2022/08/12 16:14:21;;;;;;;0.10;0.10;;;;;;;;;;5021104;28;20412;-67
2022/08/12 16:16:53;;;;;;;4.25;0.55;;;;;;;;;;5071674;28;20064;-68
2022/08/12 16:19:23;;;;;;;1.23;0.47;;;;;;;;;;5071244;28;20040;-67
2022/08/12 16:22:13;;;;;;;0.43;0.15;;;;;;;;;;5071230;28;20412;-68
2022/08/12 16:24:44;;;;;;;0.50;0.45;;;;;;;;;;5030858;28;20046;-69
2022/08/12 16:27:22;;;;;;;0.80;0.50;;;;;;;;;;5031091;28;20062;-67
2022/08/12 16:29:56;;;;;;;1.05;0.57;;;;;;;;;;5031136;28;20057;-67
2022/08/12 16:32:26;;;;;;;1.92;0.60;;;;;;;;;;5010990;28;20097;-69
2022/08/12 16:35:00;;;;;;;0.88;0.50;;;;;;;;;;5011247;28;20062;-67
2022/08/12 16:37:32;;;;;;;1.30;0.75;;;;;;;;;;4971642;28;20491;-72
2022/08/12 16:40:22;;;;;;;0.40;0.38;;;;;;;;;;4972197;28;20054;-70
2022/08/12 16:42:56;;;;;;;2.30;0.50;;;;;;;;;;4991714;28;20050;-67
2022/08/12 16:45:38;;;;;;;1.55;0.30;;;;;;;;;;5011136;28;20517;-68
2022/08/12 16:48:29;;;;;;;1.77;0.38;;;;;;;;;;4973541;28;20503;-67
2022/08/12 16:51:10;;;;;;;0.40;0.20;;;;;;;;;;4971430;28;20428;-67
2022/08/12 16:53:41;;;;;;;0.40;0.38;;;;;;;;;;4971834;28;20078;-69
2022/08/12 16:56:14;;;;;;;0.85;0.45;;;;;;;;;;4971628;28;20054;-66
2022/08/12 16:58:46;;;;;;;0.82;0.22;;;;;;;;;;4951964;29;20404;-67
2022/08/12 17:01:20;;;;;;;0.90;0.50;;;;;;;;;;4920949;29;20464;-69
2022/08/12 17:04:06;;;;;;;0.70;0.43;;;;;;;;;;4963874;28;20057;-67
2022/08/12 17:06:46;;;;;;;0.55;0.55;;;;;;;;;;4904899;29;20098;-67
2022/08/12 17:09:17;;;;;;;0.40;0.40;;;;;;;;;;4951896;29;20059;-67
2022/08/12 17:11:48;;;;;;;0.50;0.47;;;;;;;;;;4951904;29;20129;-70
2022/08/12 17:14:21;;;;;;;0.50;0.50;;;;;;;;;;4916256;29;20056;-68
2022/08/12 17:16:58;;;;;;;1.08;0.50;;;;;;;;;;4932934;29;20056;-71
2022/08/12 17:19:34;;;;;;;0.55;0.50;;;;;;;;;;4902211;29;20052;-70
2022/08/12 17:22:27;;;;;;;0.75;0.47;;;;;;;;;;4894685;29;20056;-67
2022/08/12 17:25:02;;;;;;;1.20;0.95;;;;;;;;;;4909837;29;20060;-73
2022/08/12 17:27:45;;;;;;;0.70;0.50;;;;;;;;;;4907663;29;20123;-67
2022/08/12 17:30:26;;;;;;;0.95;0.57;;;;;;;;;;4913462;29;20048;-66